Avon, Utah
Current Conditions -  °F | °C
As of 4:55 AM on Sunday 21 Dec 2014 (Local Time) from KBMC Reporting Station
Overcast Overcast  
Wind Chill: -1°   Ceiling: 1700
Heat Index:   Visibility: 7mi
Dew Point:   Wind: 13mph
Humidity: 87%   Direction: 180°S
Pressure: 29.99"   Gusts: 17mph
Location:  41.5397°N, 111.856°W
Report Text: KBMC 211155Z AUTO 18011G15KT 7SM OVC017 04/02 A2999 RMK AO1 T00370017 10166 21035
Loading
Personal Weather Stations






























Interactive Weather Map New forecast layout! Learn more

10-Day Weather Forecast

Advertisements
Track Severe Weather on mobile